Time;durP1;ratioP1;P1;durP2;ratioP2;P2;SDS_P1;SDS_P2;PMS_P1;PMS_P2;Temp;Humidity;BMP_temperature;BMP_pressure;BME280_temperature;BME280_humidity;BME280_pressure;Samples;Min_cycle;Max_cycle;Signal;HPM_P1;HPM_P2
2023/05/07 00:00:07;;;;;;;8.03;7.23;;;15.20;99.90;;;;;;5033863;28;20178;-81
2023/05/07 00:02:33;;;;;;;7.83;7.03;;;15.20;99.90;;;;;;5033365;28;20524;-81
2023/05/07 00:04:59;;;;;;;6.70;6.10;;;15.30;99.90;;;;;;5031317;28;20569;-81
2023/05/07 00:07:25;;;;;;;7.03;6.40;;;15.30;99.90;;;;;;5033433;28;20664;-81
2023/05/07 00:09:51;;;;;;;5.70;5.13;;;15.30;99.90;;;;;;5032637;28;20245;-80
2023/05/07 00:12:16;;;;;;;5.67;5.17;;;15.30;99.90;;;;;;5036615;28;20516;-79
2023/05/07 00:14:42;;;;;;;5.33;4.93;;;15.30;99.90;;;;;;5047466;28;20207;-82
2023/05/07 00:17:08;;;;;;;5.80;5.30;;;15.40;99.90;;;;;;5034727;28;20236;-80
2023/05/07 00:19:34;;;;;;;5.10;4.67;;;15.50;99.90;;;;;;5045158;28;20178;-82
2023/05/07 00:22:00;;;;;;;5.53;5.03;;;15.50;99.90;;;;;;5050508;28;20201;-81
2023/05/07 00:24:25;;;;;;;5.37;4.97;;;15.50;99.90;;;;;;5050200;28;20174;-82
2023/05/07 00:26:52;;;;;;;5.87;5.33;;;15.50;99.90;;;;;;5039454;28;20200;-81
2023/05/07 00:29:18;;;;;;;4.60;4.30;;;15.50;99.90;;;;;;5034813;28;20173;-80
2023/05/07 00:31:44;;;;;;;6.93;5.50;;;15.40;99.90;;;;;;5032609;28;20184;-83
2023/05/07 00:34:10;;;;;;;5.17;4.70;;;16.80;99.90;;;;;;5031786;28;20597;-81
2023/05/07 00:36:36;;;;;;;6.70;4.87;;;15.30;99.90;;;;;;5033339;28;20180;-80
2023/05/07 00:39:03;;;;;;;5.40;4.90;;;15.30;99.90;;;;;;5033222;28;20177;-80
2023/05/07 00:41:30;;;;;;;5.60;5.10;;;14.80;99.90;;;;;;5031567;28;20729;-82
2023/05/07 00:43:56;;;;;;;5.37;4.97;;;15.30;99.90;;;;;;5031538;28;20640;-80
2023/05/07 00:46:23;;;;;;;5.53;5.00;;;15.30;99.90;;;;;;5033312;28;20208;-80
2023/05/07 00:48:50;;;;;;;5.30;4.90;;;15.30;99.90;;;;;;5033047;28;20564;-80
2023/05/07 00:51:18;;;;;;;5.87;5.37;;;15.30;99.90;;;;;;5031845;28;20214;-81
2023/05/07 00:53:47;;;;;;;5.40;5.00;;;15.30;99.90;;;;;;5033186;28;20176;-81
2023/05/07 00:56:13;;;;;;;5.77;5.27;;;15.30;99.90;;;;;;5035332;28;20176;-82
2023/05/07 00:58:39;;;;;;;5.33;4.83;;;15.30;99.90;;;;;;5039410;28;20176;-81
2023/05/07 01:01:04;;;;;;;5.53;5.03;;;15.10;99.90;;;;;;5041026;28;20179;-79
2023/05/07 01:03:30;;;;;;;5.40;4.90;;;15.10;99.90;;;;;;5036498;28;20186;-81
2023/05/07 01:05:59;;;;;;;5.40;5.00;;;15.00;99.90;;;;;;5033110;28;20251;-83
2023/05/07 01:08:27;;;;;;;5.57;5.13;;;15.10;99.90;;;;;;5033150;28;20216;-83
2023/05/07 01:10:55;;;;;;;5.87;5.27;;;15.10;99.90;;;;;;5033038;28;20266;-81
2023/05/07 01:13:23;;;;;;;5.60;5.10;;;15.00;99.90;;;;;;5032770;28;20169;-81
2023/05/07 01:15:50;;;;;;;5.33;4.93;;;15.00;99.90;;;;;;5032024;28;20247;-80
2023/05/07 01:18:16;;;;;;;5.13;4.70;;;14.90;99.90;;;;;;5034965;28;20187;-81
2023/05/07 01:20:42;;;;;;;4.70;4.40;;;14.90;99.90;;;;;;5033537;28;20208;-79
2023/05/07 01:23:08;;;;;;;4.00;3.70;;;14.80;99.90;;;;;;5033783;28;20172;-80
2023/05/07 01:25:34;;;;;;;3.57;3.37;;;14.80;99.90;;;;;;5033044;28;20267;-81
2023/05/07 01:28:01;;;;;;;3.50;3.30;;;14.80;99.90;;;;;;5032449;28;20693;-81
2023/05/07 01:30:28;;;;;;;3.83;3.53;;;14.80;99.90;;;;;;5031131;28;20327;-82
2023/05/07 01:33:03;;;;;;;3.67;3.37;;;14.70;99.90;;;;;;5032847;28;20176;-81
2023/05/07 01:35:35;;;;;;;3.83;3.30;;;14.60;99.90;;;;;;5034347;28;20254;-81
2023/05/07 01:38:04;;;;;;;3.37;3.07;;;14.50;99.90;;;;;;5036305;28;20176;-81
2023/05/07 01:40:30;;;;;;;3.73;3.53;;;14.60;99.90;;;;;;5034742;28;20189;-81
2023/05/07 01:42:56;;;;;;;3.43;3.23;;;14.60;99.90;;;;;;5035953;28;20191;-81
2023/05/07 01:45:23;;;;;;;3.67;3.40;;;14.50;99.90;;;;;;5034573;28;20176;-81
2023/05/07 01:47:50;;;;;;;3.97;3.67;;;14.40;99.90;;;;;;5035791;28;20177;-81
2023/05/07 01:50:18;;;;;;;3.30;3.10;;;14.40;99.90;;;;;;5034541;28;20309;-81
2023/05/07 01:52:44;;;;;;;3.97;3.67;;;14.40;99.90;;;;;;5034681;28;20219;-80
2023/05/07 01:55:09;;;;;;;3.60;3.40;;;14.40;99.90;;;;;;5051874;28;20164;-81
2023/05/07 01:57:35;;;;;;;5.50;3.73;;;14.40;99.90;;;;;;5041943;28;20169;-82
2023/05/07 02:00:02;;;;;;;4.17;3.87;;;14.30;99.90;;;;;;5035640;28;20184;-80
2023/05/07 02:02:28;;;;;;;4.00;3.70;;;14.30;99.90;;;;;;5036386;28;20169;-81
2023/05/07 02:04:54;;;;;;;4.03;3.63;;;14.30;99.90;;;;;;5035332;28;20190;-81
2023/05/07 02:07:19;;;;;;;3.60;3.40;;;14.30;99.90;;;;;;5035607;28;20168;-81
2023/05/07 02:09:45;;;;;;;3.70;3.40;;;14.30;99.90;;;;;;5035388;28;20277;-81
2023/05/07 02:12:11;;;;;;;4.00;3.80;;;14.30;99.90;;;;;;5035527;28;20250;-80
2023/05/07 02:14:37;;;;;;;4.20;3.80;;;14.30;99.90;;;;;;5035647;28;20651;-81
2023/05/07 02:17:03;;;;;;;3.67;3.37;;;14.30;99.90;;;;;;5034482;28;20183;-80
2023/05/07 02:19:28;;;;;;;4.30;4.00;;;14.30;99.90;;;;;;5035774;28;20172;-81
2023/05/07 02:21:55;;;;;;;3.90;3.53;;;14.20;99.90;;;;;;5038316;28;20852;-81
2023/05/07 02:24:20;;;;;;;3.67;3.30;;;14.20;99.90;;;;;;5047124;28;20202;-80
2023/05/07 02:26:46;;;;;;;3.57;3.37;;;14.20;99.90;;;;;;5048439;28;20172;-80
2023/05/07 02:29:12;;;;;;;3.53;3.33;;;14.20;99.90;;;;;;5034627;28;20579;-80
2023/05/07 02:31:38;;;;;;;3.30;3.10;;;14.20;99.90;;;;;;5034293;28;20271;-80
2023/05/07 02:34:03;;;;;;;3.30;3.10;;;14.20;99.90;;;;;;5034026;28;20175;-81
2023/05/07 02:36:29;;;;;;;3.20;3.00;;;14.10;99.90;;;;;;5033924;28;20210;-81
2023/05/07 02:38:55;;;;;;;2.90;2.80;;;14.20;99.90;;;;;;5040590;28;20183;-79
2023/05/07 02:41:21;;;;;;;3.60;3.40;;;14.10;99.90;;;;;;5034016;28;20208;-80
2023/05/07 02:43:47;;;;;;;3.40;3.20;;;14.00;99.90;;;;;;5032721;28;20187;-81
2023/05/07 02:46:12;;;;;;;4.50;3.73;;;13.90;99.90;;;;;;5033371;28;20172;-80
2023/05/07 02:48:38;;;;;;;3.73;3.43;;;13.90;99.90;;;;;;5033741;28;20184;-80
2023/05/07 02:51:05;;;;;;;3.80;3.50;;;13.90;99.90;;;;;;5033768;28;20204;-80
2023/05/07 02:53:31;;;;;;;3.80;3.50;;;13.90;99.90;;;;;;5033972;28;20215;-79
2023/05/07 02:55:58;;;;;;;3.50;3.30;;;13.80;99.90;;;;;;5034853;28;20644;-82
2023/05/07 02:58:23;;;;;;;3.80;3.50;;;13.80;99.90;;;;;;5035513;28;20192;-81
2023/05/07 03:00:50;;;;;;;3.47;3.27;;;13.80;99.90;;;;;;5034918;28;20231;-80
2023/05/07 03:03:15;;;;;;;3.63;3.43;;;13.80;99.90;;;;;;5034450;28;20187;-80
2023/05/07 03:05:41;;;;;;;3.97;3.67;;;13.80;99.90;;;;;;5034185;28;20232;-80
2023/05/07 03:08:08;;;;;;;3.77;3.57;;;13.70;99.90;;;;;;5035099;28;20668;-80
2023/05/07 03:10:34;;;;;;;3.77;3.47;;;13.70;99.90;;;;;;5034986;28;20212;-80
2023/05/07 03:13:01;;;;;;;3.53;3.30;;;13.70;99.90;;;;;;5034432;28;20183;-81
2023/05/07 03:15:27;;;;;;;3.57;3.10;;;13.70;99.90;;;;;;5034042;28;20181;-79
2023/05/07 03:17:53;;;;;;;3.57;3.30;;;13.70;99.90;;;;;;5033869;28;20184;-80
2023/05/07 03:20:18;;;;;;;3.60;3.40;;;13.80;99.90;;;;;;5034276;28;20255;-81
2023/05/07 03:22:44;;;;;;;3.60;3.30;;;13.80;99.90;;;;;;5034544;28;20173;-80
2023/05/07 03:25:10;;;;;;;3.40;3.20;;;13.80;99.90;;;;;;5034217;28;20643;-79
2023/05/07 03:27:36;;;;;;;3.20;3.00;;;13.80;99.90;;;;;;5034840;28;20198;-81
2023/05/07 03:30:04;;;;;;;3.70;3.50;;;13.80;99.90;;;;;;5034195;28;20670;-80
2023/05/07 03:32:30;;;;;;;4.20;3.37;;;13.80;99.90;;;;;;5033133;28;20514;-81
2023/05/07 03:34:55;;;;;;;3.53;3.30;;;13.80;99.90;;;;;;5046154;28;20218;-80
2023/05/07 03:37:24;;;;;;;3.93;3.50;;;13.80;99.90;;;;;;5042360;28;20223;-80
2023/05/07 03:39:50;;;;;;;3.57;3.37;;;14.90;99.90;;;;;;5035564;28;20176;-79
2023/05/07 03:42:15;;;;;;;4.00;3.60;;;13.70;99.90;;;;;;5035111;28;20536;-80
2023/05/07 03:44:41;;;;;;;3.70;3.50;;;13.60;99.90;;;;;;5035346;28;20196;-81
2023/05/07 03:47:07;;;;;;;3.73;3.43;;;13.70;99.90;;;;;;5036015;28;20176;-79
2023/05/07 03:49:33;;;;;;;3.93;3.67;;;13.60;99.90;;;;;;5037632;28;20267;-79
2023/05/07 03:51:59;;;;;;;3.50;3.30;;;13.60;99.90;;;;;;5045240;28;20217;-79
2023/05/07 03:54:24;;;;;;;3.50;3.30;;;13.60;99.90;;;;;;5034732;28;20175;-81
2023/05/07 03:56:53;;;;;;;3.80;3.50;;;13.50;99.90;;;;;;5033209;28;20183;-79
2023/05/07 03:59:19;;;;;;;3.93;3.40;;;13.50;99.90;;;;;;5034708;28;20617;-81
2023/05/07 04:01:45;;;;;;;4.03;3.73;;;13.50;99.90;;;;;;5032109;28;20183;-81
2023/05/07 04:04:10;;;;;;;4.10;3.50;;;13.40;99.90;;;;;;5031891;28;20180;-80
2023/05/07 04:06:37;;;;;;;3.53;3.33;;;13.30;99.90;;;;;;5031338;28;20732;-81
2023/05/07 04:09:03;;;;;;;3.70;3.47;;;13.40;99.90;;;;;;5032281;28;20196;-79
2023/05/07 04:11:29;;;;;;;4.07;3.73;;;13.40;99.90;;;;;;5032517;28;20676;-81
2023/05/07 04:13:55;;;;;;;3.30;3.10;;;13.40;99.90;;;;;;5032722;28;20172;-80
2023/05/07 04:16:21;;;;;;;3.70;3.40;;;13.50;99.90;;;;;;5032424;28;20337;-80
2023/05/07 04:18:46;;;;;;;3.50;3.30;;;13.60;99.90;;;;;;5030713;28;20183;-80
2023/05/07 04:21:19;;;;;;;4.60;3.93;;;13.60;99.90;;;;;;5032381;28;20189;-80
2023/05/07 04:23:47;;;;;;;3.63;3.43;;;13.50;99.90;;;;;;5032234;28;20302;-81
2023/05/07 04:26:13;;;;;;;3.83;3.27;;;13.50;99.90;;;;;;5032257;28;20234;-80
2023/05/07 04:28:40;;;;;;;3.60;3.40;;;13.50;99.90;;;;;;5031975;28;20258;-81
2023/05/07 04:31:06;;;;;;;4.10;3.63;;;13.50;99.90;;;;;;5032981;28;20208;-82
2023/05/07 04:33:32;;;;;;;4.10;3.80;;;13.50;99.90;;;;;;5031864;28;20176;-81
2023/05/07 04:36:02;;;;;;;4.30;4.00;;;13.50;99.90;;;;;;5032794;28;20177;-80
2023/05/07 04:38:30;;;;;;;3.60;3.40;;;13.50;99.90;;;;;;5032419;28;20265;-80
2023/05/07 04:40:56;;;;;;;4.10;3.80;;;13.50;99.90;;;;;;5032204;28;20183;-80
2023/05/07 04:43:22;;;;;;;4.73;3.47;;;13.60;99.90;;;;;;5034536;28;20160;-81
2023/05/07 04:45:50;;;;;;;3.70;3.50;;;13.60;99.90;;;;;;5033456;28;20678;-80
2023/05/07 04:48:18;;;;;;;3.70;3.50;;;13.50;99.90;;;;;;5032837;28;20559;-80
2023/05/07 04:50:47;;;;;;;4.40;4.10;;;13.50;99.90;;;;;;5033207;28;20202;-81
2023/05/07 04:53:12;;;;;;;3.70;3.50;;;13.50;99.90;;;;;;5033459;28;20206;-81
2023/05/07 04:55:38;;;;;;;3.60;3.30;;;13.50;99.90;;;;;;5033331;28;20207;-81
2023/05/07 04:58:04;;;;;;;5.50;3.37;;;13.60;99.90;;;;;;5032821;28;20173;-79
2023/05/07 05:00:30;;;;;;;4.40;3.87;;;13.60;99.90;;;;;;5033141;28;20219;-82
2023/05/07 05:02:56;;;;;;;3.83;3.53;;;13.60;99.90;;;;;;5033274;28;20252;-81
2023/05/07 05:05:22;;;;;;;3.73;3.50;;;13.60;99.90;;;;;;5033256;28;20245;-81
2023/05/07 05:07:48;;;;;;;3.57;3.37;;;13.70;99.90;;;;;;5033216;28;20214;-80
2023/05/07 05:10:14;;;;;;;3.87;3.40;;;13.80;99.90;;;;;;5034609;28;20729;-81
2023/05/07 05:12:40;;;;;;;3.87;3.50;;;13.80;99.90;;;;;;5037035;28;20180;-80
2023/05/07 05:15:06;;;;;;;3.63;3.33;;;13.80;99.90;;;;;;5037014;28;20191;-78
2023/05/07 05:17:34;;;;;;;4.43;4.03;;;13.80;99.90;;;;;;5043930;28;20223;-79
2023/05/07 05:19:59;;;;;;;3.97;3.67;;;13.90;99.90;;;;;;5042578;28;20254;-80
2023/05/07 05:22:25;;;;;;;3.30;3.20;;;14.00;99.90;;;;;;5036751;28;20191;-80
2023/05/07 05:24:51;;;;;;;3.67;3.30;;;14.10;99.90;;;;;;5036196;28;20227;-80
2023/05/07 05:27:17;;;;;;;4.17;2.97;;;14.10;99.90;;;;;;5034467;28;20186;-80
2023/05/07 05:29:42;;;;;;;3.17;2.97;;;14.20;99.90;;;;;;5035298;28;20612;-81
2023/05/07 05:32:08;;;;;;;3.10;2.87;;;14.10;99.90;;;;;;5035631;28;20187;-80
2023/05/07 05:34:34;;;;;;;3.17;2.97;;;14.30;99.90;;;;;;5035924;28;20255;-80
2023/05/07 05:37:00;;;;;;;3.10;2.90;;;14.30;99.90;;;;;;5034343;28;20610;-80
2023/05/07 05:39:25;;;;;;;3.50;3.30;;;14.30;99.90;;;;;;5035181;28;20176;-80
2023/05/07 05:41:51;;;;;;;3.20;3.00;;;14.30;99.90;;;;;;5035157;28;20183;-81
2023/05/07 05:44:17;;;;;;;3.17;2.97;;;14.30;99.90;;;;;;5035892;28;20591;-81
2023/05/07 05:46:42;;;;;;;3.17;2.97;;;14.30;99.90;;;;;;5035079;28;20199;-81
2023/05/07 05:49:08;;;;;;;3.23;3.03;;;14.30;99.90;;;;;;5033861;28;20197;-81
2023/05/07 05:51:35;;;;;;;3.10;2.90;;;14.30;99.90;;;;;;5034261;28;20302;-80
2023/05/07 05:54:01;;;;;;;2.80;2.70;;;14.40;99.90;;;;;;5035179;28;20195;-80
2023/05/07 05:56:27;;;;;;;3.13;2.87;;;14.40;99.90;;;;;;5033934;28;20636;-81
2023/05/07 05:58:54;;;;;;;3.50;2.90;;;14.50;99.90;;;;;;5033277;28;20200;-80
2023/05/07 06:01:20;;;;;;;2.70;2.60;;;14.50;99.90;;;;;;5034928;28;20217;-80
2023/05/07 06:03:45;;;;;;;2.63;2.47;;;14.60;99.90;;;;;;5034780;28;20200;-80
2023/05/07 06:06:11;;;;;;;2.90;2.70;;;14.60;99.90;;;;;;5036097;28;20243;-82
2023/05/07 06:08:37;;;;;;;2.90;2.77;;;14.50;99.90;;;;;;5033045;28;20590;-81
2023/05/07 06:11:03;;;;;;;3.37;3.17;;;14.60;99.90;;;;;;5033085;28;20208;-80
2023/05/07 06:13:29;;;;;;;3.27;2.80;;;14.70;99.90;;;;;;5033443;28;20521;-80
2023/05/07 06:15:54;;;;;;;2.97;2.87;;;14.80;99.90;;;;;;5034831;28;20272;-82
2023/05/07 06:18:20;;;;;;;2.47;2.37;;;15.00;99.90;;;;;;5035316;28;20181;-79
2023/05/07 06:20:46;;;;;;;2.80;2.70;;;15.00;99.90;;;;;;5034107;28;20180;-81
2023/05/07 06:23:11;;;;;;;4.67;4.37;;;15.20;99.90;;;;;;5035576;28;20189;-80
2023/05/07 06:25:37;;;;;;;3.37;3.10;;;15.20;99.90;;;;;;5034148;28;20779;-80
2023/05/07 06:28:03;;;;;;;2.97;2.77;;;15.30;99.90;;;;;;5034838;28;20169;-79
2023/05/07 06:30:28;;;;;;;3.17;3.07;;;15.30;99.90;;;;;;5035178;28;20212;-80
2023/05/07 06:32:54;;;;;;;5.10;4.70;;;15.30;99.90;;;;;;5035457;28;20163;-79
2023/05/07 06:35:20;;;;;;;2.80;2.70;;;15.50;99.90;;;;;;5036864;28;20191;-81
2023/05/07 06:37:46;;;;;;;3.10;2.80;;;15.50;99.90;;;;;;5037491;28;20173;-82
2023/05/07 06:40:13;;;;;;;3.53;3.23;;;15.60;99.90;;;;;;5039472;28;20184;-80
2023/05/07 06:42:39;;;;;;;2.97;2.77;;;15.70;99.90;;;;;;5047277;28;20196;-80
2023/05/07 06:45:05;;;;;;;3.10;2.90;;;15.80;99.90;;;;;;5036863;28;20175;-80
2023/05/07 06:47:31;;;;;;;3.80;3.50;;;15.90;99.90;;;;;;5034824;28;20510;-79
2023/05/07 06:49:56;;;;;;;3.23;2.60;;;16.00;99.90;;;;;;5033533;28;20277;-81
2023/05/07 06:52:22;;;;;;;2.60;2.50;;;16.00;99.90;;;;;;5033932;28;20173;-80
2023/05/07 06:54:48;;;;;;;2.73;2.63;;;16.20;99.90;;;;;;5036402;28;20177;-80
2023/05/07 06:57:13;;;;;;;2.80;2.60;;;16.30;99.90;;;;;;5049308;28;20184;-83
2023/05/07 06:59:39;;;;;;;2.23;2.13;;;16.50;99.90;;;;;;5036538;28;20222;-81
2023/05/07 07:02:05;;;;;;;2.47;2.37;;;16.60;99.90;;;;;;5034074;28;20172;-80
2023/05/07 07:04:31;;;;;;;2.57;2.47;;;16.80;99.90;;;;;;5034081;28;20169;-80
2023/05/07 07:06:57;;;;;;;2.47;2.27;;;17.00;99.90;;;;;;5033543;28;20218;-82
2023/05/07 07:09:22;;;;;;;2.40;2.30;;;17.20;99.90;;;;;;5033434;28;20571;-84
2023/05/07 07:11:48;;;;;;;2.60;2.50;;;17.30;99.90;;;;;;5033337;28;20184;-81
2023/05/07 07:14:14;;;;;;;2.93;2.80;;;17.40;99.90;;;;;;5033638;28;20175;-81
2023/05/07 07:16:40;;;;;;;2.57;2.47;;;17.60;99.90;;;;;;5032454;28;20258;-83
2023/05/07 07:19:06;;;;;;;2.50;2.40;;;16.80;99.90;;;;;;5033322;28;20558;-81
2023/05/07 07:21:32;;;;;;;2.60;2.50;;;17.70;99.90;;;;;;5033382;28;20182;-81
2023/05/07 07:23:57;;;;;;;3.20;2.90;;;17.80;99.90;;;;;;5032259;28;20230;-82
2023/05/07 07:26:23;;;;;;;2.80;2.60;;;17.90;99.90;;;;;;5032088;28;20184;-81
2023/05/07 07:28:49;;;;;;;2.87;2.77;;;17.90;99.90;;;;;;5033327;28;20226;-81
2023/05/07 07:31:15;;;;;;;3.40;3.20;;;18.00;99.90;;;;;;5033212;28;20581;-82
2023/05/07 07:33:43;;;;;;;2.70;2.60;;;18.10;99.90;;;;;;5032399;28;20172;-84
2023/05/07 07:36:09;;;;;;;3.20;3.00;;;18.10;99.90;;;;;;5033018;28;20183;-82
2023/05/07 07:38:35;;;;;;;2.90;2.70;;;18.10;99.90;;;;;;5031542;28;20230;-82
2023/05/07 07:41:01;;;;;;;3.07;2.87;;;18.10;99.90;;;;;;5032425;28;20211;-83
2023/05/07 07:43:27;;;;;;;3.20;3.00;;;18.10;99.90;;;;;;5033040;28;20255;-81
2023/05/07 07:45:53;;;;;;;3.67;3.47;;;18.20;99.90;;;;;;5032388;28;20208;-82
2023/05/07 07:48:19;;;;;;;3.40;3.10;;;18.10;99.90;;;;;;5031623;28;20635;-81
2023/05/07 07:50:44;;;;;;;3.67;3.17;;;18.10;99.90;;;;;;5034850;28;20220;-82
2023/05/07 07:53:10;;;;;;;3.30;3.10;;;18.20;99.90;;;;;;5035052;28;20290;-83
2023/05/07 07:55:40;;;;;;;3.13;2.93;;;18.20;99.90;;;;;;5034051;28;20683;-82
2023/05/07 07:58:05;;;;;;;3.33;3.13;;;18.20;99.90;;;;;;5034088;28;20185;-81
2023/05/07 08:00:31;;;;;;;3.63;2.90;;;18.30;99.90;;;;;;5041069;28;20653;-83
2023/05/07 08:02:57;;;;;;;3.13;2.97;;;18.30;99.90;;;;;;5039357;28;20644;-82
2023/05/07 08:05:23;;;;;;;3.33;3.13;;;18.50;99.90;;;;;;5040486;28;20266;-80
2023/05/07 08:07:53;;;;;;;3.23;3.03;;;18.40;99.90;;;;;;5035277;28;20172;-82
2023/05/07 08:10:21;;;;;;;3.20;3.10;;;18.40;99.90;;;;;;5030927;28;20212;-83
2023/05/07 08:12:48;;;;;;;3.60;3.40;;;18.40;99.90;;;;;;5032827;28;20172;-83
2023/05/07 08:15:14;;;;;;;3.20;3.00;;;18.40;99.90;;;;;;5032472;28;20267;-81
2023/05/07 08:17:40;;;;;;;3.50;3.17;;;18.30;99.90;;;;;;5032532;28;20251;-84
2023/05/07 08:20:07;;;;;;;3.50;3.20;;;18.30;99.90;;;;;;5032353;28;20632;-84
2023/05/07 08:22:36;;;;;;;3.60;3.40;;;18.50;99.90;;;;;;5032576;28;20175;-84
2023/05/07 08:25:02;;;;;;;3.97;3.70;;;18.60;99.90;;;;;;5032521;28;20604;-83
2023/05/07 08:27:28;;;;;;;3.70;3.40;;;18.70;99.90;;;;;;5031376;28;20652;-82
2023/05/07 08:29:54;;;;;;;3.93;3.73;;;18.80;99.90;;;;;;5032264;28;20192;-83
2023/05/07 08:32:20;;;;;;;3.47;3.23;;;19.00;99.90;;;;;;5030917;28;20526;-83
2023/05/07 08:34:47;;;;;;;2.93;2.83;;;19.10;99.90;;;;;;5033156;28;20177;-82
2023/05/07 08:37:13;;;;;;;3.47;3.20;;;19.30;99.90;;;;;;5035328;28;20201;-83
2023/05/07 08:39:38;;;;;;;3.33;3.03;;;19.40;99.90;;;;;;5050216;28;20220;-82
2023/05/07 08:42:04;;;;;;;4.63;2.93;;;19.50;99.90;;;;;;5043739;28;20234;-83
2023/05/07 08:44:37;;;;;;;3.30;3.10;;;19.60;99.90;;;;;;5033133;28;20219;-81
2023/05/07 08:47:05;;;;;;;2.93;2.83;;;19.50;99.90;;;;;;5036340;28;20164;-83
2023/05/07 08:49:31;;;;;;;3.00;2.80;;;19.50;99.90;;;;;;5035909;28;20184;-82
2023/05/07 08:51:57;;;;;;;3.30;3.00;;;19.60;99.90;;;;;;5035998;28;20184;-84
2023/05/07 08:54:24;;;;;;;3.13;2.93;;;19.70;99.90;;;;;;5036501;28;20184;-82
2023/05/07 08:56:50;;;;;;;3.30;3.10;;;19.60;99.90;;;;;;5034974;28;20998;-82
2023/05/07 08:59:16;;;;;;;3.30;3.10;;;19.60;99.90;;;;;;5036045;28;20255;-84
2023/05/07 09:01:42;;;;;;;3.20;3.10;;;19.00;99.90;;;;;;5036685;28;20230;-82
2023/05/07 09:04:09;;;;;;;3.03;2.83;;;19.60;99.90;;;;;;5036041;28;20172;-82
2023/05/07 09:06:34;;;;;;;3.97;2.90;;;19.70;99.90;;;;;;5034604;28;20221;-83
2023/05/07 09:09:01;;;;;;;2.97;2.77;;;19.90;99.90;;;;;;5035812;28;20226;-83
2023/05/07 09:11:27;;;;;;;3.23;3.03;;;20.10;99.90;;;;;;5036053;28;20299;-82
2023/05/07 09:13:57;;;;;;;2.87;2.77;;;20.20;99.90;;;;;;5037658;28;20173;-82
2023/05/07 09:16:24;;;;;;;3.00;2.80;;;20.30;99.90;;;;;;5037711;28;20206;-83
2023/05/07 09:18:54;;;;;;;2.90;2.77;;;20.30;99.90;;;;;;5035913;28;20180;-82
2023/05/07 09:21:22;;;;;;;2.73;2.63;;;20.40;99.90;;;;;;5039287;28;20169;-82
2023/05/07 09:23:52;;;;;;;2.60;2.50;;;20.60;99.90;;;;;;5043679;28;20161;-83
2023/05/07 09:26:21;;;;;;;2.70;2.60;;;20.80;99.90;;;;;;5042131;28;20172;-82
2023/05/07 09:28:47;;;;;;;2.90;2.80;;;20.80;99.90;;;;;;5042255;28;20523;-82
2023/05/07 09:31:13;;;;;;;2.77;2.60;;;20.80;99.90;;;;;;5041478;28;20283;-82
2023/05/07 09:33:39;;;;;;;3.10;2.90;;;20.90;99.90;;;;;;5037743;28;20179;-82
2023/05/07 09:36:07;;;;;;;3.30;3.10;;;20.90;99.90;;;;;;5035627;28;20168;-83
2023/05/07 09:38:34;;;;;;;3.20;3.10;;;20.80;99.90;;;;;;5035513;28;20176;-83
2023/05/07 09:41:08;;;;;;;2.97;2.77;;;20.30;99.90;;;;;;5036911;28;20226;-82
2023/05/07 09:43:35;;;;;;;3.60;3.10;;;20.10;99.90;;;;;;5033981;28;20172;-82
2023/05/07 09:46:25;;;;;;;3.07;2.87;;;20.10;99.90;;;;;;5033872;28;20172;-82
2023/05/07 09:48:53;;;;;;;3.00;2.87;;;20.10;99.90;;;;;;5033961;28;20528;-83
2023/05/07 09:51:29;;;;;;;2.57;2.47;;;20.30;99.90;;;;;;5033933;28;20215;-82
2023/05/07 09:53:56;;;;;;;3.00;2.90;;;20.40;99.90;;;;;;5037116;28;20176;-81
2023/05/07 09:56:24;;;;;;;3.40;3.20;;;20.40;99.90;;;;;;5033772;28;20555;-82
2023/05/07 09:58:53;;;;;;;2.77;2.67;;;20.40;99.90;;;;;;5032416;28;20188;-80
2023/05/07 10:01:21;;;;;;;6.93;5.73;;;20.50;99.90;;;;;;5033126;28;20230;-81
2023/05/07 10:03:50;;;;;;;3.63;3.43;;;20.60;99.90;;;;;;5033788;28;20188;-80
2023/05/07 10:06:17;;;;;;;3.37;3.17;;;20.80;99.90;;;;;;5035000;28;20232;-82
2023/05/07 10:08:43;;;;;;;2.80;2.70;;;20.90;99.90;;;;;;5034999;28;20293;-81
2023/05/07 10:11:10;;;;;;;3.00;2.70;;;20.90;99.90;;;;;;5034864;28;20204;-82
2023/05/07 10:13:37;;;;;;;2.87;2.77;;;21.20;99.90;;;;;;5034734;28;20172;-81
2023/05/07 10:16:04;;;;;;;3.80;2.93;;;21.40;99.90;;;;;;5035234;28;20187;-82
2023/05/07 10:18:32;;;;;;;3.00;2.80;;;21.40;99.90;;;;;;5041356;28;20704;-82
2023/05/07 10:21:13;;;;;;;2.77;2.60;;;21.60;99.90;;;;;;5052874;28;20184;-83
2023/05/07 10:23:40;;;;;;;2.37;2.27;;;21.70;99.90;;;;;;5041048;28;20164;-83
2023/05/07 10:26:08;;;;;;;3.23;2.73;;;21.70;99.90;;;;;;5035767;28;20168;-82
2023/05/07 10:28:38;;;;;;;3.60;3.40;;;21.70;99.90;;;;;;5033528;28;20183;-82
2023/05/07 10:31:19;;;;;;;3.20;3.00;;;21.80;99.90;;;;;;5034461;28;20228;-83
2023/05/07 10:33:46;;;;;;;2.70;2.60;;;21.80;99.90;;;;;;5034566;28;20243;-81
2023/05/07 10:36:12;;;;;;;3.00;2.80;;;21.90;99.90;;;;;;5034499;28;20180;-82
2023/05/07 10:38:40;;;;;;;2.43;2.23;;;22.10;99.90;;;;;;5034574;28;20263;-80
2023/05/07 10:41:06;;;;;;;2.05;2.00;;;22.30;99.90;;;;;;5034555;28;20199;-82
2023/05/07 10:43:42;;;;;;;2.63;2.43;;;22.50;99.90;;;;;;5036924;28;20188;-81
2023/05/07 10:46:19;;;;;;;2.60;2.50;;;22.30;99.90;;;;;;5038658;28;20160;-80
2023/05/07 10:49:03;;;;;;;2.58;2.40;;;22.30;99.90;;;;;;5034606;28;20648;-82
2023/05/07 10:51:31;;;;;;;2.63;2.53;;;22.30;99.90;;;;;;5035440;28;20563;-80
2023/05/07 10:54:12;;;;;;;2.30;2.20;;;22.40;99.90;;;;;;5036512;28;20180;-82
2023/05/07 10:56:47;;;;;;;2.30;2.20;;;22.50;99.90;;;;;;5042103;28;20197;-83
2023/05/07 10:59:30;;;;;;;2.58;2.47;;;22.50;99.90;;;;;;5036814;28;20163;-80
2023/05/07 11:01:57;;;;;;;2.30;2.17;;;22.50;99.90;;;;;;5037646;28;20161;-82
2023/05/07 11:04:27;;;;;;;2.30;2.20;;;22.60;99.90;;;;;;5032714;28;20275;-82
2023/05/07 11:07:12;;;;;;;2.20;2.10;;;22.60;99.90;;;;;;5033835;28;20301;-84
2023/05/07 11:10:04;;;;;;;2.50;2.40;;;22.90;99.90;;;;;;5033480;28;20167;-82
2023/05/07 11:12:35;;;;;;;2.03;1.92;;;22.90;99.50;;;;;;5034573;28;20175;-84
2023/05/07 11:15:38;;;;;;;4.00;3.78;;;22.90;99.00;;;;;;5032496;28;20204;-81
2023/05/07 11:18:04;;;;;;;2.25;2.15;;;23.00;99.20;;;;;;5032800;28;20208;-81
2023/05/07 11:20:53;;;;;;;2.30;2.20;;;22.90;99.40;;;;;;5033340;28;20259;-81
2023/05/07 11:23:34;;;;;;;2.28;2.17;;;23.00;99.60;;;;;;5033796;28;20191;-80
2023/05/07 11:26:03;;;;;;;2.00;1.90;;;23.20;99.20;;;;;;5033231;28;20180;-82
2023/05/07 11:28:30;;;;;;;2.13;2.05;;;23.40;98.60;;;;;;5033409;28;20177;-83
2023/05/07 11:30:57;;;;;;;2.03;1.98;;;23.50;98.60;;;;;;5033570;28;20208;-83
2023/05/07 11:33:25;;;;;;;2.95;2.75;;;23.40;98.70;;;;;;5032296;28;20177;-82
2023/05/07 11:35:53;;;;;;;2.00;2.00;;;23.40;98.50;;;;;;5033474;28;20183;-84
2023/05/07 11:38:19;;;;;;;2.58;2.47;;;23.50;98.50;;;;;;5033217;28;20702;-82
2023/05/07 11:40:57;;;;;;;1.90;1.80;;;23.40;98.50;;;;;;5035134;28;20183;-81
2023/05/07 11:43:23;;;;;;;2.20;2.10;;;23.30;98.50;;;;;;5033181;28;20260;-81
2023/05/07 11:45:49;;;;;;;2.67;2.58;;;23.10;98.20;;;;;;5033138;28;20268;-79
2023/05/07 11:48:16;;;;;;;2.20;2.10;;;22.90;98.50;;;;;;5031443;28;20595;-82
2023/05/07 11:51:01;;;;;;;2.28;2.08;;;22.80;98.40;;;;;;5033332;28;20208;-81
2023/05/07 11:53:28;;;;;;;2.20;2.10;;;22.80;98.00;;;;;;5033710;28;20169;-82
2023/05/07 11:55:55;;;;;;;2.13;2.03;;;22.90;98.20;;;;;;5032618;28;20640;-82
2023/05/07 11:58:22;;;;;;;2.43;2.23;;;22.60;98.00;;;;;;5033107;28;20172;-80
2023/05/07 12:00:49;;;;;;;4.07;3.77;;;22.70;98.00;;;;;;5044958;28;20195;-80
2023/05/07 12:03:15;;;;;;;2.63;2.53;;;22.50;98.10;;;;;;5049880;28;20196;-80
2023/05/07 12:05:41;;;;;;;4.40;4.00;;;22.50;98.20;;;;;;5040790;28;20232;-80
2023/05/07 12:08:08;;;;;;;2.63;2.50;;;22.70;98.20;;;;;;5033994;28;20176;-80
2023/05/07 12:10:33;;;;;;;2.13;2.03;;;22.80;97.70;;;;;;5032988;28;20223;-81
2023/05/07 12:12:59;;;;;;;2.90;2.75;;;22.90;98.00;;;;;;5032796;28;20165;-82
2023/05/07 12:15:25;;;;;;;2.30;2.10;;;22.90;98.40;;;;;;5032821;28;20182;-81
2023/05/07 12:17:52;;;;;;;2.00;1.90;;;22.90;98.40;;;;;;5033141;28;20179;-80
2023/05/07 12:20:18;;;;;;;2.17;2.07;;;22.90;98.00;;;;;;5032919;28;20258;-80
2023/05/07 12:22:44;;;;;;;2.20;2.10;;;22.80;97.80;;;;;;5037460;28;20168;-81
2023/05/07 12:25:10;;;;;;;2.47;2.30;;;22.80;97.90;;;;;;5038483;28;20172;-82
2023/05/07 12:27:38;;;;;;;2.20;2.00;;;22.80;97.70;;;;;;5037393;28;20215;-81
2023/05/07 12:30:05;;;;;;;2.15;2.08;;;22.80;98.00;;;;;;5033181;28;20188;-82
2023/05/07 12:32:36;;;;;;;1.90;1.80;;;22.90;98.10;;;;;;5030849;28;20191;-79
2023/05/07 12:35:02;;;;;;;2.10;2.00;;;23.00;98.20;;;;;;5031882;28;20207;-80
2023/05/07 12:37:27;;;;;;;2.25;2.15;;;23.10;98.00;;;;;;5034201;28;20176;-83
2023/05/07 12:40:10;;;;;;;2.25;2.15;;;23.10;98.20;;;;;;5033263;28;20176;-81
2023/05/07 12:42:38;;;;;;;2.17;2.08;;;23.10;98.00;;;;;;5033039;28;20191;-82
2023/05/07 12:45:15;;;;;;;2.00;2.00;;;23.00;97.90;;;;;;5032909;28;20195;-80
2023/05/07 12:47:47;;;;;;;2.40;2.20;;;22.90;97.60;;;;;;5032399;28;20207;-81